sensor_id;sensor_type;location;lat;lon;timestamp;P1;durP1;ratioP1;P2;durP2;ratioP2
16391;SDS011;8305;-33.882;151.134;2023-09-19T00:01:42;6.13;;;3.70;;
16391;SDS011;8305;-33.882;151.134;2023-09-19T00:04:13;5.72;;;3.92;;
16391;SDS011;8305;-33.882;151.134;2023-09-19T00:06:49;4.53;;;3.80;;
16391;SDS011;8305;-33.882;151.134;2023-09-19T00:09:20;5.28;;;3.45;;
16391;SDS011;8305;-33.882;151.134;2023-09-19T00:11:55;6.05;;;3.63;;
16391;SDS011;8305;-33.882;151.134;2023-09-19T00:14:25;6.03;;;3.45;;
16391;SDS011;8305;-33.882;151.134;2023-09-19T00:16:56;5.05;;;3.53;;
16391;SDS011;8305;-33.882;151.134;2023-09-19T00:19:27;3.90;;;3.13;;
16391;SDS011;8305;-33.882;151.134;2023-09-19T00:21:58;5.00;;;3.53;;
16391;SDS011;8305;-33.882;151.134;2023-09-19T00:24:29;4.50;;;3.20;;
16391;SDS011;8305;-33.882;151.134;2023-09-19T00:27:03;4.90;;;3.60;;
16391;SDS011;8305;-33.882;151.134;2023-09-19T00:29:34;6.47;;;3.75;;
16391;SDS011;8305;-33.882;151.134;2023-09-19T00:32:07;4.82;;;3.63;;
16391;SDS011;8305;-33.882;151.134;2023-09-19T00:34:38;4.07;;;3.10;;
16391;SDS011;8305;-33.882;151.134;2023-09-19T00:37:09;6.15;;;3.70;;
16391;SDS011;8305;-33.882;151.134;2023-09-19T00:39:40;3.90;;;3.38;;
16391;SDS011;8305;-33.882;151.134;2023-09-19T00:42:21;4.20;;;3.38;;
16391;SDS011;8305;-33.882;151.134;2023-09-19T00:44:52;5.50;;;3.17;;
16391;SDS011;8305;-33.882;151.134;2023-09-19T00:47:22;6.57;;;3.78;;
16391;SDS011;8305;-33.882;151.134;2023-09-19T00:49:54;7.13;;;3.63;;
16391;SDS011;8305;-33.882;151.134;2023-09-19T00:52:25;6.53;;;3.70;;
16391;SDS011;8305;-33.882;151.134;2023-09-19T00:54:58;6.32;;;3.90;;
16391;SDS011;8305;-33.882;151.134;2023-09-19T00:57:32;6.93;;;3.40;;
16391;SDS011;8305;-33.882;151.134;2023-09-19T01:00:06;4.35;;;3.40;;
16391;SDS011;8305;-33.882;151.134;2023-09-19T01:02:41;4.90;;;3.47;;
16391;SDS011;8305;-33.882;151.134;2023-09-19T01:05:12;4.70;;;3.30;;
16391;SDS011;8305;-33.882;151.134;2023-09-19T01:07:44;7.57;;;3.55;;
16391;SDS011;8305;-33.882;151.134;2023-09-19T01:10:17;5.47;;;3.47;;
16391;SDS011;8305;-33.882;151.134;2023-09-19T01:12:52;3.38;;;3.03;;
16391;SDS011;8305;-33.882;151.134;2023-09-19T01:15:36;4.18;;;3.25;;
16391;SDS011;8305;-33.882;151.134;2023-09-19T01:18:16;3.78;;;3.33;;
16391;SDS011;8305;-33.882;151.134;2023-09-19T01:20:57;6.43;;;3.63;;
16391;SDS011;8305;-33.882;151.134;2023-09-19T01:23:39;3.97;;;3.10;;
16391;SDS011;8305;-33.882;151.134;2023-09-19T01:26:43;4.45;;;3.58;;
16391;SDS011;8305;-33.882;151.134;2023-09-19T01:29:38;4.53;;;3.55;;
16391;SDS011;8305;-33.882;151.134;2023-09-19T01:32:13;5.60;;;3.40;;
16391;SDS011;8305;-33.882;151.134;2023-09-19T01:34:48;4.38;;;3.22;;
16391;SDS011;8305;-33.882;151.134;2023-09-19T01:37:20;4.63;;;3.53;;
16391;SDS011;8305;-33.882;151.134;2023-09-19T01:40:01;5.32;;;3.55;;
16391;SDS011;8305;-33.882;151.134;2023-09-19T01:42:44;3.50;;;3.20;;
16391;SDS011;8305;-33.882;151.134;2023-09-19T01:45:23;3.88;;;3.28;;
16391;SDS011;8305;-33.882;151.134;2023-09-19T01:48:05;4.72;;;2.92;;
16391;SDS011;8305;-33.882;151.134;2023-09-19T01:50:49;4.18;;;3.35;;
16391;SDS011;8305;-33.882;151.134;2023-09-19T01:53:28;4.72;;;3.17;;
16391;SDS011;8305;-33.882;151.134;2023-09-19T01:56:04;4.10;;;3.55;;
16391;SDS011;8305;-33.882;151.134;2023-09-19T01:58:39;5.90;;;3.50;;
16391;SDS011;8305;-33.882;151.134;2023-09-19T02:01:15;6.25;;;3.92;;
16391;SDS011;8305;-33.882;151.134;2023-09-19T02:03:50;5.60;;;3.85;;
16391;SDS011;8305;-33.882;151.134;2023-09-19T02:06:22;6.20;;;3.30;;
16391;SDS011;8305;-33.882;151.134;2023-09-19T02:08:54;8.55;;;3.55;;
16391;SDS011;8305;-33.882;151.134;2023-09-19T02:11:25;4.35;;;3.38;;
16391;SDS011;8305;-33.882;151.134;2023-09-19T02:13:56;3.95;;;3.30;;
16391;SDS011;8305;-33.882;151.134;2023-09-19T02:16:27;3.92;;;3.00;;
16391;SDS011;8305;-33.882;151.134;2023-09-19T02:19:00;4.50;;;3.05;;
16391;SDS011;8305;-33.882;151.134;2023-09-19T02:21:32;4.22;;;3.25;;
16391;SDS011;8305;-33.882;151.134;2023-09-19T02:24:02;3.67;;;3.20;;
16391;SDS011;8305;-33.882;151.134;2023-09-19T02:26:36;6.85;;;3.50;;
16391;SDS011;8305;-33.882;151.134;2023-09-19T02:29:06;3.72;;;3.15;;
16391;SDS011;8305;-33.882;151.134;2023-09-19T02:31:39;3.38;;;2.88;;
16391;SDS011;8305;-33.882;151.134;2023-09-19T02:34:11;5.50;;;3.30;;
16391;SDS011;8305;-33.882;151.134;2023-09-19T02:36:42;5.53;;;3.72;;
16391;SDS011;8305;-33.882;151.134;2023-09-19T02:39:13;4.28;;;3.40;;
16391;SDS011;8305;-33.882;151.134;2023-09-19T02:41:44;4.20;;;3.30;;
16391;SDS011;8305;-33.882;151.134;2023-09-19T02:44:15;4.80;;;3.00;;
16391;SDS011;8305;-33.882;151.134;2023-09-19T02:46:46;5.70;;;3.20;;
16391;SDS011;8305;-33.882;151.134;2023-09-19T02:49:19;4.28;;;3.13;;
16391;SDS011;8305;-33.882;151.134;2023-09-19T02:51:50;3.85;;;3.10;;
16391;SDS011;8305;-33.882;151.134;2023-09-19T02:54:21;5.55;;;3.30;;
16391;SDS011;8305;-33.882;151.134;2023-09-19T02:56:52;3.90;;;3.20;;
16391;SDS011;8305;-33.882;151.134;2023-09-19T02:59:23;6.68;;;3.55;;
16391;SDS011;8305;-33.882;151.134;2023-09-19T03:01:56;4.88;;;3.40;;
16391;SDS011;8305;-33.882;151.134;2023-09-19T03:04:28;5.13;;;3.25;;
16391;SDS011;8305;-33.882;151.134;2023-09-19T03:07:01;4.85;;;3.17;;
16391;SDS011;8305;-33.882;151.134;2023-09-19T03:09:32;3.65;;;3.00;;
16391;SDS011;8305;-33.882;151.134;2023-09-19T03:12:03;4.13;;;3.20;;
16391;SDS011;8305;-33.882;151.134;2023-09-19T03:14:34;3.60;;;3.13;;
16391;SDS011;8305;-33.882;151.134;2023-09-19T03:17:05;5.90;;;4.35;;
16391;SDS011;8305;-33.882;151.134;2023-09-19T03:19:38;5.78;;;3.50;;
16391;SDS011;8305;-33.882;151.134;2023-09-19T03:22:09;6.70;;;3.47;;
16391;SDS011;8305;-33.882;151.134;2023-09-19T03:24:40;6.18;;;3.10;;
16391;SDS011;8305;-33.882;151.134;2023-09-19T03:27:12;4.78;;;3.40;;
16391;SDS011;8305;-33.882;151.134;2023-09-19T03:29:43;5.00;;;3.10;;
16391;SDS011;8305;-33.882;151.134;2023-09-19T03:32:14;4.30;;;3.03;;
16391;SDS011;8305;-33.882;151.134;2023-09-19T03:34:47;4.30;;;2.88;;
16391;SDS011;8305;-33.882;151.134;2023-09-19T03:37:18;3.63;;;3.28;;
16391;SDS011;8305;-33.882;151.134;2023-09-19T03:39:48;4.00;;;3.10;;
16391;SDS011;8305;-33.882;151.134;2023-09-19T03:42:18;3.58;;;3.20;;
16391;SDS011;8305;-33.882;151.134;2023-09-19T03:44:51;4.03;;;3.20;;
16391;SDS011;8305;-33.882;151.134;2023-09-19T03:47:23;4.50;;;3.20;;
16391;SDS011;8305;-33.882;151.134;2023-09-19T03:49:56;7.60;;;3.30;;
16391;SDS011;8305;-33.882;151.134;2023-09-19T03:52:26;3.90;;;3.40;;
16391;SDS011;8305;-33.882;151.134;2023-09-19T03:54:57;4.00;;;3.00;;
16391;SDS011;8305;-33.882;151.134;2023-09-19T03:57:30;4.78;;;3.50;;
16391;SDS011;8305;-33.882;151.134;2023-09-19T04:00:02;4.03;;;3.25;;
16391;SDS011;8305;-33.882;151.134;2023-09-19T04:02:37;3.92;;;3.10;;
16391;SDS011;8305;-33.882;151.134;2023-09-19T04:05:10;5.60;;;3.70;;
16391;SDS011;8305;-33.882;151.134;2023-09-19T04:07:41;4.25;;;3.60;;
16391;SDS011;8305;-33.882;151.134;2023-09-19T04:10:12;3.47;;;3.17;;
16391;SDS011;8305;-33.882;151.134;2023-09-19T04:12:50;3.30;;;3.00;;
16391;SDS011;8305;-33.882;151.134;2023-09-19T04:15:21;3.67;;;3.28;;
16391;SDS011;8305;-33.882;151.134;2023-09-19T04:17:53;4.43;;;3.10;;
16391;SDS011;8305;-33.882;151.134;2023-09-19T04:20:26;4.78;;;3.20;;
16391;SDS011;8305;-33.882;151.134;2023-09-19T04:22:57;3.65;;;3.22;;
16391;SDS011;8305;-33.882;151.134;2023-09-19T04:25:27;3.75;;;3.35;;
16391;SDS011;8305;-33.882;151.134;2023-09-19T04:27:59;5.50;;;3.58;;
16391;SDS011;8305;-33.882;151.134;2023-09-19T04:30:30;5.18;;;3.30;;
16391;SDS011;8305;-33.882;151.134;2023-09-19T04:33:01;5.05;;;3.50;;
16391;SDS011;8305;-33.882;151.134;2023-09-19T04:35:35;5.07;;;3.45;;
16391;SDS011;8305;-33.882;151.134;2023-09-19T04:38:09;4.45;;;3.15;;
16391;SDS011;8305;-33.882;151.134;2023-09-19T04:40:41;5.25;;;3.20;;
16391;SDS011;8305;-33.882;151.134;2023-09-19T04:43:12;3.50;;;3.20;;
16391;SDS011;8305;-33.882;151.134;2023-09-19T04:45:43;4.97;;;3.40;;
16391;SDS011;8305;-33.882;151.134;2023-09-19T04:48:14;4.07;;;3.00;;
16391;SDS011;8305;-33.882;151.134;2023-09-19T04:50:47;5.45;;;3.13;;
16391;SDS011;8305;-33.882;151.134;2023-09-19T04:53:18;4.15;;;3.40;;
16391;SDS011;8305;-33.882;151.134;2023-09-19T04:55:52;3.78;;;3.33;;
16391;SDS011;8305;-33.882;151.134;2023-09-19T04:58:24;4.38;;;3.55;;
16391;SDS011;8305;-33.882;151.134;2023-09-19T05:00:55;3.63;;;3.33;;
16391;SDS011;8305;-33.882;151.134;2023-09-19T05:03:29;4.25;;;3.30;;
16391;SDS011;8305;-33.882;151.134;2023-09-19T05:06:03;3.50;;;3.20;;
16391;SDS011;8305;-33.882;151.134;2023-09-19T05:08:34;4.63;;;3.22;;
16391;SDS011;8305;-33.882;151.134;2023-09-19T05:11:05;6.00;;;3.70;;
16391;SDS011;8305;-33.882;151.134;2023-09-19T05:13:37;3.72;;;3.35;;
16391;SDS011;8305;-33.882;151.134;2023-09-19T05:16:09;4.57;;;3.28;;
16391;SDS011;8305;-33.882;151.134;2023-09-19T05:18:40;4.55;;;3.30;;
16391;SDS011;8305;-33.882;151.134;2023-09-19T05:21:13;4.18;;;3.00;;
16391;SDS011;8305;-33.882;151.134;2023-09-19T05:23:45;4.80;;;3.28;;
16391;SDS011;8305;-33.882;151.134;2023-09-19T05:26:16;4.70;;;3.13;;
16391;SDS011;8305;-33.882;151.134;2023-09-19T05:28:47;4.60;;;3.42;;
16391;SDS011;8305;-33.882;151.134;2023-09-19T05:31:19;3.40;;;3.03;;
16391;SDS011;8305;-33.882;151.134;2023-09-19T05:33:51;4.25;;;3.22;;
16391;SDS011;8305;-33.882;151.134;2023-09-19T05:36:24;4.25;;;3.30;;
16391;SDS011;8305;-33.882;151.134;2023-09-19T05:38:56;3.92;;;3.22;;
16391;SDS011;8305;-33.882;151.134;2023-09-19T05:41:27;3.40;;;3.00;;
16391;SDS011;8305;-33.882;151.134;2023-09-19T05:43:58;3.67;;;2.97;;
16391;SDS011;8305;-33.882;151.134;2023-09-19T05:46:29;14.82;;;6.22;;
16391;SDS011;8305;-33.882;151.134;2023-09-19T05:49:00;11.38;;;6.03;;
16391;SDS011;8305;-33.882;151.134;2023-09-19T05:51:33;10.52;;;5.53;;
16391;SDS011;8305;-33.882;151.134;2023-09-19T05:54:04;11.02;;;5.50;;
16391;SDS011;8305;-33.882;151.134;2023-09-19T05:56:35;11.57;;;5.57;;
16391;SDS011;8305;-33.882;151.134;2023-09-19T05:59:06;14.77;;;6.35;;
16391;SDS011;8305;-33.882;151.134;2023-09-19T06:01:37;13.48;;;5.90;;
16391;SDS011;8305;-33.882;151.134;2023-09-19T06:04:08;10.90;;;5.85;;
16391;SDS011;8305;-33.882;151.134;2023-09-19T06:06:41;10.38;;;5.85;;
16391;SDS011;8305;-33.882;151.134;2023-09-19T06:09:13;13.15;;;6.07;;
16391;SDS011;8305;-33.882;151.134;2023-09-19T06:11:44;12.18;;;5.95;;
16391;SDS011;8305;-33.882;151.134;2023-09-19T06:14:14;13.65;;;6.18;;
16391;SDS011;8305;-33.882;151.134;2023-09-19T06:16:46;12.70;;;5.70;;
16391;SDS011;8305;-33.882;151.134;2023-09-19T06:19:17;13.27;;;6.10;;
16391;SDS011;8305;-33.882;151.134;2023-09-19T06:21:51;11.80;;;5.65;;
16391;SDS011;8305;-33.882;151.134;2023-09-19T06:24:22;14.35;;;5.50;;
16391;SDS011;8305;-33.882;151.134;2023-09-19T06:26:53;11.75;;;5.25;;
16391;SDS011;8305;-33.882;151.134;2023-09-19T06:29:28;11.75;;;5.22;;
16391;SDS011;8305;-33.882;151.134;2023-09-19T06:32:00;14.98;;;6.32;;
16391;SDS011;8305;-33.882;151.134;2023-09-19T06:34:31;11.80;;;6.10;;
16391;SDS011;8305;-33.882;151.134;2023-09-19T06:37:03;11.25;;;5.97;;
16391;SDS011;8305;-33.882;151.134;2023-09-19T06:39:34;13.27;;;6.03;;
16391;SDS011;8305;-33.882;151.134;2023-09-19T06:42:05;15.70;;;6.38;;
16391;SDS011;8305;-33.882;151.134;2023-09-19T06:44:37;13.70;;;6.30;;
16391;SDS011;8305;-33.882;151.134;2023-09-19T06:47:07;16.00;;;6.45;;
16391;SDS011;8305;-33.882;151.134;2023-09-19T06:49:38;11.52;;;5.68;;
16391;SDS011;8305;-33.882;151.134;2023-09-19T06:52:12;12.35;;;5.57;;
16391;SDS011;8305;-33.882;151.134;2023-09-19T06:54:43;10.13;;;5.30;;
16391;SDS011;8305;-33.882;151.134;2023-09-19T06:57:16;11.85;;;5.50;;
16391;SDS011;8305;-33.882;151.134;2023-09-19T06:59:47;12.30;;;5.55;;
16391;SDS011;8305;-33.882;151.134;2023-09-19T07:02:18;13.45;;;6.07;;
16391;SDS011;8305;-33.882;151.134;2023-09-19T07:04:49;9.70;;;5.15;;
16391;SDS011;8305;-33.882;151.134;2023-09-19T07:07:21;11.55;;;5.05;;
16391;SDS011;8305;-33.882;151.134;2023-09-19T07:09:52;12.13;;;5.75;;
16391;SDS011;8305;-33.882;151.134;2023-09-19T07:12:24;10.93;;;5.15;;
16391;SDS011;8305;-33.882;151.134;2023-09-19T07:14:54;11.05;;;4.95;;
16391;SDS011;8305;-33.882;151.134;2023-09-19T07:17:25;12.10;;;5.00;;
16391;SDS011;8305;-33.882;151.134;2023-09-19T07:19:56;13.18;;;5.20;;
16391;SDS011;8305;-33.882;151.134;2023-09-19T07:22:29;15.40;;;5.60;;
16391;SDS011;8305;-33.882;151.134;2023-09-19T07:24:59;12.60;;;5.32;;
16391;SDS011;8305;-33.882;151.134;2023-09-19T07:27:30;17.05;;;5.63;;
16391;SDS011;8305;-33.882;151.134;2023-09-19T07:30:01;14.15;;;5.68;;
16391;SDS011;8305;-33.882;151.134;2023-09-19T07:32:32;15.10;;;5.20;;
16391;SDS011;8305;-33.882;151.134;2023-09-19T07:35:03;10.23;;;4.97;;
16391;SDS011;8305;-33.882;151.134;2023-09-19T07:37:36;10.40;;;5.10;;
16391;SDS011;8305;-33.882;151.134;2023-09-19T07:40:07;15.40;;;5.30;;
16391;SDS011;8305;-33.882;151.134;2023-09-19T07:42:39;10.82;;;4.90;;
16391;SDS011;8305;-33.882;151.134;2023-09-19T07:45:10;10.48;;;5.15;;
16391;SDS011;8305;-33.882;151.134;2023-09-19T07:47:44;12.52;;;5.25;;
16391;SDS011;8305;-33.882;151.134;2023-09-19T07:50:15;14.20;;;5.95;;
16391;SDS011;8305;-33.882;151.134;2023-09-19T07:52:48;16.55;;;5.70;;
16391;SDS011;8305;-33.882;151.134;2023-09-19T07:55:20;13.27;;;4.65;;
16391;SDS011;8305;-33.882;151.134;2023-09-19T07:57:52;12.02;;;5.35;;
16391;SDS011;8305;-33.882;151.134;2023-09-19T08:00:23;13.27;;;4.80;;
16391;SDS011;8305;-33.882;151.134;2023-09-19T08:02:54;15.88;;;5.50;;
16391;SDS011;8305;-33.882;151.134;2023-09-19T08:05:25;13.35;;;5.03;;
16391;SDS011;8305;-33.882;151.134;2023-09-19T08:07:57;14.18;;;5.50;;
16391;SDS011;8305;-33.882;151.134;2023-09-19T08:10:32;13.65;;;5.13;;
16391;SDS011;8305;-33.882;151.134;2023-09-19T08:13:06;10.95;;;5.07;;
16391;SDS011;8305;-33.882;151.134;2023-09-19T08:15:43;14.05;;;5.85;;
16391;SDS011;8305;-33.882;151.134;2023-09-19T08:18:14;16.15;;;5.72;;
16391;SDS011;8305;-33.882;151.134;2023-09-19T08:20:49;15.05;;;5.68;;
16391;SDS011;8305;-33.882;151.134;2023-09-19T08:23:22;16.33;;;6.00;;
16391;SDS011;8305;-33.882;151.134;2023-09-19T08:25:56;18.17;;;7.20;;
16391;SDS011;8305;-33.882;151.134;2023-09-19T08:28:32;17.58;;;8.10;;
16391;SDS011;8305;-33.882;151.134;2023-09-19T08:31:07;13.77;;;7.57;;
16391;SDS011;8305;-33.882;151.134;2023-09-19T08:33:38;15.32;;;5.38;;
16391;SDS011;8305;-33.882;151.134;2023-09-19T08:36:10;14.90;;;5.70;;
16391;SDS011;8305;-33.882;151.134;2023-09-19T08:38:43;12.75;;;5.47;;
16391;SDS011;8305;-33.882;151.134;2023-09-19T08:41:17;17.73;;;5.75;;
16391;SDS011;8305;-33.882;151.134;2023-09-19T08:43:48;14.80;;;5.80;;
16391;SDS011;8305;-33.882;151.134;2023-09-19T08:46:19;14.95;;;5.97;;
16391;SDS011;8305;-33.882;151.134;2023-09-19T08:48:54;17.13;;;6.15;;
16391;SDS011;8305;-33.882;151.134;2023-09-19T08:51:34;15.45;;;6.07;;
16391;SDS011;8305;-33.882;151.134;2023-09-19T08:54:16;20.00;;;6.20;;
16391;SDS011;8305;-33.882;151.134;2023-09-19T08:56:52;13.27;;;5.75;;
16391;SDS011;8305;-33.882;151.134;2023-09-19T08:59:25;15.80;;;5.82;;
16391;SDS011;8305;-33.882;151.134;2023-09-19T09:01:58;15.20;;;5.55;;
16391;SDS011;8305;-33.882;151.134;2023-09-19T09:04:30;14.35;;;5.38;;
16391;SDS011;8305;-33.882;151.134;2023-09-19T09:07:02;15.07;;;5.88;;
16391;SDS011;8305;-33.882;151.134;2023-09-19T09:09:36;11.75;;;5.22;;
16391;SDS011;8305;-33.882;151.134;2023-09-19T09:12:09;11.75;;;5.82;;
16391;SDS011;8305;-33.882;151.134;2023-09-19T09:14:44;16.33;;;6.03;;
16391;SDS011;8305;-33.882;151.134;2023-09-19T09:17:16;14.85;;;5.82;;
16391;SDS011;8305;-33.882;151.134;2023-09-19T09:19:48;15.98;;;6.25;;
16391;SDS011;8305;-33.882;151.134;2023-09-19T09:22:21;14.70;;;6.13;;
16391;SDS011;8305;-33.882;151.134;2023-09-19T09:24:54;13.13;;;5.63;;
16391;SDS011;8305;-33.882;151.134;2023-09-19T09:27:27;16.75;;;5.70;;
16391;SDS011;8305;-33.882;151.134;2023-09-19T09:29:59;14.93;;;5.60;;
16391;SDS011;8305;-33.882;151.134;2023-09-19T09:32:30;14.40;;;6.38;;
16391;SDS011;8305;-33.882;151.134;2023-09-19T09:35:06;16.60;;;6.32;;
16391;SDS011;8305;-33.882;151.134;2023-09-19T09:37:40;15.55;;;6.57;;
16391;SDS011;8305;-33.882;151.134;2023-09-19T09:40:16;18.00;;;7.22;;
16391;SDS011;8305;-33.882;151.134;2023-09-19T09:43:02;14.65;;;6.50;;
16391;SDS011;8305;-33.882;151.134;2023-09-19T09:46:06;16.17;;;6.60;;
16391;SDS011;8305;-33.882;151.134;2023-09-19T09:49:00;16.27;;;6.72;;
16391;SDS011;8305;-33.882;151.134;2023-09-19T09:51:59;16.52;;;7.20;;
16391;SDS011;8305;-33.882;151.134;2023-09-19T09:54:32;18.85;;;6.97;;
16391;SDS011;8305;-33.882;151.134;2023-09-19T09:57:07;17.60;;;7.55;;
16391;SDS011;8305;-33.882;151.134;2023-09-19T09:59:50;13.93;;;6.53;;
16391;SDS011;8305;-33.882;151.134;2023-09-19T10:02:24;15.43;;;6.93;;
16391;SDS011;8305;-33.882;151.134;2023-09-19T10:05:10;15.18;;;7.22;;
16391;SDS011;8305;-33.882;151.134;2023-09-19T10:07:47;14.63;;;6.90;;
16391;SDS011;8305;-33.882;151.134;2023-09-19T10:10:31;13.57;;;6.65;;
16391;SDS011;8305;-33.882;151.134;2023-09-19T10:13:21;12.75;;;6.32;;
16391;SDS011;8305;-33.882;151.134;2023-09-19T10:15:55;14.02;;;6.25;;
16391;SDS011;8305;-33.882;151.134;2023-09-19T10:18:29;17.65;;;6.10;;
16391;SDS011;8305;-33.882;151.134;2023-09-19T10:21:05;15.95;;;6.40;;
16391;SDS011;8305;-33.882;151.134;2023-09-19T10:23:38;15.38;;;6.50;;
16391;SDS011;8305;-33.882;151.134;2023-09-19T10:26:11;16.23;;;6.28;;
16391;SDS011;8305;-33.882;151.134;2023-09-19T10:28:48;17.02;;;6.53;;
16391;SDS011;8305;-33.882;151.134;2023-09-19T10:31:21;15.32;;;6.75;;
16391;SDS011;8305;-33.882;151.134;2023-09-19T10:33:52;15.40;;;6.63;;
16391;SDS011;8305;-33.882;151.134;2023-09-19T10:36:24;14.18;;;6.72;;
16391;SDS011;8305;-33.882;151.134;2023-09-19T10:39:01;15.57;;;6.70;;
16391;SDS011;8305;-33.882;151.134;2023-09-19T10:41:34;16.73;;;6.55;;
16391;SDS011;8305;-33.882;151.134;2023-09-19T10:44:08;17.58;;;6.80;;
16391;SDS011;8305;-33.882;151.134;2023-09-19T10:46:40;13.25;;;6.60;;
16391;SDS011;8305;-33.882;151.134;2023-09-19T10:49:11;17.65;;;7.72;;
16391;SDS011;8305;-33.882;151.134;2023-09-19T10:51:44;14.13;;;6.63;;
16391;SDS011;8305;-33.882;151.134;2023-09-19T10:54:16;15.82;;;6.45;;
16391;SDS011;8305;-33.882;151.134;2023-09-19T10:56:52;16.13;;;6.38;;
16391;SDS011;8305;-33.882;151.134;2023-09-19T10:59:27;10.85;;;5.72;;
16391;SDS011;8305;-33.882;151.134;2023-09-19T11:02:07;12.23;;;5.72;;
16391;SDS011;8305;-33.882;151.134;2023-09-19T11:04:46;11.40;;;5.88;;
16391;SDS011;8305;-33.882;151.134;2023-09-19T11:07:17;13.82;;;6.13;;
16391;SDS011;8305;-33.882;151.134;2023-09-19T11:09:52;11.35;;;6.00;;
16391;SDS011;8305;-33.882;151.134;2023-09-19T11:18:53;10.63;;;5.63;;
16391;SDS011;8305;-33.882;151.134;2023-09-19T11:24:30;13.13;;;6.30;;
16391;SDS011;8305;-33.882;151.134;2023-09-19T11:27:11;12.48;;;5.22;;
16391;SDS011;8305;-33.882;151.134;2023-09-19T11:29:44;10.45;;;5.63;;
16391;SDS011;8305;-33.882;151.134;2023-09-19T11:32:15;10.05;;;5.30;;
16391;SDS011;8305;-33.882;151.134;2023-09-19T11:35:10;8.88;;;5.00;;
16391;SDS011;8305;-33.882;151.134;2023-09-19T11:40:33;9.60;;;4.57;;
16391;SDS011;8305;-33.882;151.134;2023-09-19T11:46:06;11.40;;;5.07;;
16391;SDS011;8305;-33.882;151.134;2023-09-19T11:48:40;10.73;;;4.68;;
16391;SDS011;8305;-33.882;151.134;2023-09-19T11:51:14;9.57;;;4.55;;
16391;SDS011;8305;-33.882;151.134;2023-09-19T11:53:55;6.85;;;4.35;;
16391;SDS011;8305;-33.882;151.134;2023-09-19T11:56:26;8.57;;;4.32;;
16391;SDS011;8305;-33.882;151.134;2023-09-19T11:58:58;9.25;;;4.93;;
16391;SDS011;8305;-33.882;151.134;2023-09-19T12:01:29;9.77;;;4.55;;
16391;SDS011;8305;-33.882;151.134;2023-09-19T12:04:01;8.23;;;4.53;;
16391;SDS011;8305;-33.882;151.134;2023-09-19T12:06:34;7.05;;;4.55;;
16391;SDS011;8305;-33.882;151.134;2023-09-19T12:09:12;9.63;;;4.43;;
16391;SDS011;8305;-33.882;151.134;2023-09-19T12:11:43;10.95;;;4.50;;
16391;SDS011;8305;-33.882;151.134;2023-09-19T12:14:22;9.60;;;4.53;;
16391;SDS011;8305;-33.882;151.134;2023-09-19T12:16:55;8.90;;;4.30;;
16391;SDS011;8305;-33.882;151.134;2023-09-19T12:19:28;8.07;;;4.35;;
16391;SDS011;8305;-33.882;151.134;2023-09-19T12:22:02;8.43;;;4.50;;
16391;SDS011;8305;-33.882;151.134;2023-09-19T12:24:35;7.25;;;4.30;;
16391;SDS011;8305;-33.882;151.134;2023-09-19T12:27:08;6.28;;;4.00;;
16391;SDS011;8305;-33.882;151.134;2023-09-19T12:29:43;6.85;;;4.20;;
16391;SDS011;8305;-33.882;151.134;2023-09-19T12:32:16;8.35;;;4.20;;
16391;SDS011;8305;-33.882;151.134;2023-09-19T12:34:51;7.60;;;4.10;;
16391;SDS011;8305;-33.882;151.134;2023-09-19T12:37:24;7.82;;;4.03;;
16391;SDS011;8305;-33.882;151.134;2023-09-19T12:40:03;10.23;;;4.25;;
16391;SDS011;8305;-33.882;151.134;2023-09-19T12:42:50;9.02;;;4.47;;
16391;SDS011;8305;-33.882;151.134;2023-09-19T12:45:24;7.13;;;4.07;;
16391;SDS011;8305;-33.882;151.134;2023-09-19T12:51:01;8.85;;;4.28;;
16391;SDS011;8305;-33.882;151.134;2023-09-19T12:53:38;7.63;;;4.32;;
16391;SDS011;8305;-33.882;151.134;2023-09-19T12:56:10;6.07;;;3.90;;
16391;SDS011;8305;-33.882;151.134;2023-09-19T12:58:54;5.05;;;4.10;;
16391;SDS011;8305;-33.882;151.134;2023-09-19T13:01:29;5.78;;;3.92;;
16391;SDS011;8305;-33.882;151.134;2023-09-19T13:04:15;6.05;;;4.18;;
16391;SDS011;8305;-33.882;151.134;2023-09-19T13:06:52;6.38;;;3.83;;
16391;SDS011;8305;-33.882;151.134;2023-09-19T13:09:30;5.63;;;3.83;;
16391;SDS011;8305;-33.882;151.134;2023-09-19T13:12:05;5.00;;;3.90;;
16391;SDS011;8305;-33.882;151.134;2023-09-19T13:15:12;4.82;;;3.75;;
16391;SDS011;8305;-33.882;151.134;2023-09-19T13:17:46;6.63;;;4.03;;
16391;SDS011;8305;-33.882;151.134;2023-09-19T13:20:22;4.93;;;3.72;;
16391;SDS011;8305;-33.882;151.134;2023-09-19T13:22:54;5.68;;;4.03;;
16391;SDS011;8305;-33.882;151.134;2023-09-19T13:25:37;5.72;;;3.90;;
16391;SDS011;8305;-33.882;151.134;2023-09-19T13:28:08;6.35;;;4.25;;
16391;SDS011;8305;-33.882;151.134;2023-09-19T13:30:39;10.02;;;4.60;;
16391;SDS011;8305;-33.882;151.134;2023-09-19T13:33:10;8.77;;;4.85;;
16391;SDS011;8305;-33.882;151.134;2023-09-19T13:35:47;7.78;;;4.57;;
16391;SDS011;8305;-33.882;151.134;2023-09-19T13:38:17;7.60;;;5.18;;
16391;SDS011;8305;-33.882;151.134;2023-09-19T13:40:50;7.03;;;5.07;;
16391;SDS011;8305;-33.882;151.134;2023-09-19T13:43:21;9.52;;;5.72;;
16391;SDS011;8305;-33.882;151.134;2023-09-19T13:45:52;9.10;;;5.80;;
16391;SDS011;8305;-33.882;151.134;2023-09-19T13:48:23;8.20;;;5.80;;
16391;SDS011;8305;-33.882;151.134;2023-09-19T13:50:56;8.07;;;5.72;;
16391;SDS011;8305;-33.882;151.134;2023-09-19T13:53:26;8.25;;;5.50;;
16391;SDS011;8305;-33.882;151.134;2023-09-19T13:55:59;8.60;;;5.90;;
16391;SDS011;8305;-33.882;151.134;2023-09-19T13:58:30;7.68;;;5.47;;
16391;SDS011;8305;-33.882;151.134;2023-09-19T14:01:01;9.48;;;5.63;;
16391;SDS011;8305;-33.882;151.134;2023-09-19T14:03:32;9.52;;;5.32;;
16391;SDS011;8305;-33.882;151.134;2023-09-19T14:06:02;6.95;;;5.28;;
16391;SDS011;8305;-33.882;151.134;2023-09-19T14:08:33;9.30;;;5.93;;
16391;SDS011;8305;-33.882;151.134;2023-09-19T14:11:08;6.68;;;5.10;;
16391;SDS011;8305;-33.882;151.134;2023-09-19T14:13:39;9.82;;;5.20;;
16391;SDS011;8305;-33.882;151.134;2023-09-19T14:16:13;8.45;;;5.50;;
16391;SDS011;8305;-33.882;151.134;2023-09-19T14:18:45;7.72;;;5.07;;
16391;SDS011;8305;-33.882;151.134;2023-09-19T14:21:15;7.22;;;4.97;;
16391;SDS011;8305;-33.882;151.134;2023-09-19T14:23:46;7.55;;;4.80;;
16391;SDS011;8305;-33.882;151.134;2023-09-19T14:26:19;8.35;;;4.80;;
16391;SDS011;8305;-33.882;151.134;2023-09-19T14:28:50;6.90;;;4.60;;
16391;SDS011;8305;-33.882;151.134;2023-09-19T14:31:21;6.15;;;4.57;;
16391;SDS011;8305;-33.882;151.134;2023-09-19T14:33:54;5.60;;;4.32;;
16391;SDS011;8305;-33.882;151.134;2023-09-19T14:36:25;7.93;;;4.50;;
16391;SDS011;8305;-33.882;151.134;2023-09-19T14:38:56;7.38;;;3.97;;
16391;SDS011;8305;-33.882;151.134;2023-09-19T14:41:29;7.03;;;4.30;;
16391;SDS011;8305;-33.882;151.134;2023-09-19T14:44:01;5.28;;;4.00;;
16391;SDS011;8305;-33.882;151.134;2023-09-19T14:46:35;4.35;;;3.72;;
16391;SDS011;8305;-33.882;151.134;2023-09-19T14:49:06;6.28;;;3.75;;
16391;SDS011;8305;-33.882;151.134;2023-09-19T14:51:37;5.22;;;3.75;;
16391;SDS011;8305;-33.882;151.134;2023-09-19T14:54:10;5.78;;;3.90;;
16391;SDS011;8305;-33.882;151.134;2023-09-19T14:56:44;6.88;;;3.78;;
16391;SDS011;8305;-33.882;151.134;2023-09-19T14:59:20;4.75;;;3.50;;
16391;SDS011;8305;-33.882;151.134;2023-09-19T15:01:50;4.28;;;3.58;;
16391;SDS011;8305;-33.882;151.134;2023-09-19T15:04:21;5.22;;;3.50;;
16391;SDS011;8305;-33.882;151.134;2023-09-19T15:06:52;5.60;;;3.47;;
16391;SDS011;8305;-33.882;151.134;2023-09-19T15:09:23;4.63;;;3.13;;
16391;SDS011;8305;-33.882;151.134;2023-09-19T15:11:56;4.93;;;3.10;;